createdAt,value
2023-03-02T00:01:08.594Z,102537.50
2023-03-02T00:03:18.429Z,102540.16
2023-03-02T00:05:22.107Z,102539.28
2023-03-02T00:07:30.589Z,102537.56
2023-03-02T00:09:34.345Z,102537.56
2023-03-02T00:11:39.624Z,102539.34
2023-03-02T00:13:44.323Z,102532.28
2023-03-02T00:15:47.971Z,102536.69
2023-03-02T00:17:51.661Z,102534.94
2023-03-02T00:20:10.112Z,102534.06
2023-03-02T00:22:13.791Z,102522.69
2023-03-02T00:24:17.460Z,102529.69
2023-03-02T00:26:21.308Z,102525.31
2023-03-02T00:28:24.992Z,102520.91
2023-03-02T00:30:28.873Z,102518.28
2023-03-02T00:32:32.642Z,102525.28
2023-03-02T00:34:37.104Z,102512.97
2023-03-02T00:36:42.527Z,102516.47
2023-03-02T00:38:46.360Z,102513.84
2023-03-02T00:40:51.991Z,102501.63
2023-03-02T00:42:55.500Z,102500.69
2023-03-02T00:45:01.697Z,102505.97
2023-03-02T00:47:05.347Z,102505.97
2023-03-02T00:49:08.958Z,102505.09
2023-03-02T00:51:13.976Z,102510.38
2023-03-02T00:53:21.785Z,102496.34
2023-03-02T00:55:38.952Z,102492.84
2023-03-02T00:57:42.965Z,102498.06
2023-03-02T00:59:46.841Z,102489.28
2023-03-02T01:02:08.162Z,102494.53
2023-03-02T01:04:20.488Z,102494.53
2023-03-02T01:06:24.300Z,102483.16
2023-03-02T01:08:29.435Z,102491.88
2023-03-02T01:10:33.765Z,102490.16
2023-03-02T01:12:39.545Z,102494.53
2023-03-02T01:14:47.222Z,102485.75
2023-03-02T01:16:51.234Z,102491.88
2023-03-02T01:18:54.928Z,102487.50
2023-03-02T01:21:05.505Z,102483.06
2023-03-02T01:23:09.111Z,102485.69
2023-03-02T01:25:14.628Z,102487.50
2023-03-02T01:27:18.311Z,102486.63
2023-03-02T01:29:22.188Z,102479.63
2023-03-02T01:31:27.045Z,102475.25
2023-03-02T01:33:31.947Z,102467.34
2023-03-02T01:35:35.548Z,102472.63
2023-03-02T01:37:39.163Z,102468.28
2023-03-02T01:39:42.715Z,102460.44
2023-03-02T01:41:48.281Z,102461.34
2023-03-02T01:43:52.173Z,102457.00
2023-03-02T01:45:57.594Z,102459.69
2023-03-02T01:48:29.457Z,102462.34
2023-03-02T01:50:33.445Z,102454.47
2023-03-02T01:52:39.239Z,102453.59
2023-03-02T01:54:45.002Z,102449.22
2023-03-02T01:56:52.607Z,102443.97
2023-03-02T01:59:02.766Z,102445.72
2023-03-02T02:01:15.898Z,102439.63
2023-03-02T02:03:24.412Z,102442.22
2023-03-02T02:05:28.456Z,102443.97
2023-03-02T02:07:32.334Z,102442.16
2023-03-02T02:09:39.135Z,102436.00
2023-03-02T02:11:44.353Z,102433.38
2023-03-02T02:13:50.083Z,102436.00
2023-03-02T02:15:53.872Z,102424.59
2023-03-02T02:17:57.531Z,102427.19
2023-03-02T02:20:10.391Z,102422.78
2023-03-02T02:22:22.662Z,102419.31
2023-03-02T02:24:30.949Z,102414.84
2023-03-02T02:26:42.000Z,102413.16
2023-03-02T02:28:58.052Z,102420.13
2023-03-02T02:31:09.119Z,102413.09
2023-03-02T02:33:18.024Z,102411.28
2023-03-02T02:35:27.384Z,102412.16
2023-03-02T02:37:35.693Z,102409.56
2023-03-02T02:39:43.185Z,102408.69
2023-03-02T02:41:50.674Z,102412.22
2023-03-02T02:43:55.088Z,102403.59
2023-03-02T02:46:00.362Z,102406.28
2023-03-02T02:48:03.619Z,102404.59
2023-03-02T02:50:08.221Z,102395.91
2023-03-02T02:52:16.968Z,102399.53
2023-03-02T02:54:21.436Z,102391.78
2023-03-02T02:56:24.713Z,102393.53
2023-03-02T02:58:35.567Z,102396.19
2023-03-02T03:00:39.496Z,102390.06
2023-03-02T03:02:48.894Z,102390.06
2023-03-02T03:04:52.710Z,102390.91
2023-03-02T03:06:58.450Z,102391.81
2023-03-02T03:09:03.323Z,102376.03
2023-03-02T03:11:14.321Z,102374.28
2023-03-02T03:13:17.854Z,102369.88
2023-03-02T03:15:23.721Z,102377.75
2023-03-02T03:17:27.133Z,102373.34
2023-03-02T03:19:35.441Z,102363.78
2023-03-02T03:21:38.857Z,102360.47
2023-03-02T03:23:42.532Z,102360.53
2023-03-02T03:25:45.821Z,102352.81
2023-03-02T03:27:49.277Z,102356.34
2023-03-02T03:29:52.751Z,102358.97
2023-03-02T03:31:59.603Z,102353.72
2023-03-02T03:34:03.522Z,102354.63
2023-03-02T03:36:10.529Z,102353.72
2023-03-02T03:38:14.162Z,102344.94
2023-03-02T03:40:18.780Z,102342.31
2023-03-02T03:42:24.277Z,102341.38
2023-03-02T03:44:29.032Z,102336.09
2023-03-02T03:46:32.929Z,102329.88
2023-03-02T03:48:38.240Z,102335.94
2023-03-02T03:50:41.958Z,102342.03
2023-03-02T03:52:45.296Z,102341.13
2023-03-02T03:54:55.973Z,102342.84
2023-03-02T03:56:59.232Z,102345.53
2023-03-02T03:59:07.569Z,102341.16
2023-03-02T04:01:15.848Z,102333.38
2023-03-02T04:03:20.129Z,102338.63
2023-03-02T04:05:25.095Z,102330.78
2023-03-02T04:07:30.084Z,102328.13
2023-03-02T04:09:38.012Z,102330.81
2023-03-02T04:11:45.022Z,102335.13
2023-03-02T04:13:49.550Z,102337.81
2023-03-02T04:15:52.905Z,102330.84
2023-03-02T04:17:56.345Z,102334.38
2023-03-02T04:20:00.654Z,102333.50
2023-03-02T04:22:05.617Z,102328.25
2023-03-02T04:24:11.272Z,102335.28
2023-03-02T04:26:14.761Z,102324.81
2023-03-02T04:28:18.101Z,102337.09
2023-03-02T04:30:25.026Z,102329.25
2023-03-02T04:32:28.410Z,102323.09
2023-03-02T04:34:33.087Z,102329.25
2023-03-02T04:36:39.142Z,102324.88
2023-03-02T04:38:47.117Z,102324.00
2023-03-02T04:40:50.512Z,102321.38
2023-03-02T04:42:53.812Z,102325.72
2023-03-02T04:44:57.262Z,102315.16
2023-03-02T04:47:00.680Z,102314.28
2023-03-02T04:49:04.547Z,102319.50
2023-03-02T04:51:08.542Z,102318.63
2023-03-02T04:53:12.531Z,102320.31
2023-03-02T04:55:21.066Z,102312.44
2023-03-02T04:57:24.404Z,102315.84
2023-03-02T04:59:29.469Z,102313.19
2023-03-02T05:01:32.835Z,102313.16
2023-03-02T05:03:36.302Z,102312.25
2023-03-02T05:05:39.854Z,102310.50
2023-03-02T05:07:43.172Z,102313.09
2023-03-02T05:09:46.399Z,102311.28
2023-03-02T05:11:51.178Z,102311.28
2023-03-02T05:13:56.501Z,102314.81
2023-03-02T05:15:59.753Z,102309.50
2023-03-02T05:18:04.132Z,102304.25
2023-03-02T05:20:08.972Z,102305.06
2023-03-02T05:22:12.246Z,102309.44
2023-03-02T05:24:15.901Z,102307.66
2023-03-02T05:26:19.884Z,102303.34
2023-03-02T05:28:26.288Z,102301.56
2023-03-02T05:30:31.003Z,102298.09
2023-03-02T05:32:34.386Z,102302.50
2023-03-02T05:34:37.717Z,102305.13
2023-03-02T05:36:41.048Z,102297.31
2023-03-02T05:38:44.598Z,102304.34
2023-03-02T05:40:48.662Z,102296.50
2023-03-02T05:42:51.930Z,102300.91
2023-03-02T05:44:56.583Z,102298.25
2023-03-02T05:46:59.922Z,102300.84
2023-03-02T05:49:03.256Z,102289.47
2023-03-02T05:51:07.065Z,102294.69
2023-03-02T05:53:10.458Z,102299.06
2023-03-02T05:55:14.312Z,102299.00
2023-03-02T05:57:17.681Z,102298.09
2023-03-02T05:59:20.958Z,102298.09
2023-03-02T06:01:25.580Z,102296.31
2023-03-02T06:03:29.128Z,102303.31
2023-03-02T06:05:32.391Z,102296.25
2023-03-02T06:07:35.607Z,102299.72
2023-03-02T06:09:39.266Z,102289.13
2023-03-02T06:11:42.712Z,102291.69
2023-03-02T06:13:46.145Z,102289.06
2023-03-02T06:15:49.448Z,102286.44
2023-03-02T06:17:54.171Z,102290.75
2023-03-02T06:19:57.538Z,102285.50
2023-03-02T06:22:00.830Z,102284.66
2023-03-02T06:24:04.151Z,102279.41
2023-03-02T06:26:11.608Z,102276.72
2023-03-02T06:28:14.920Z,102279.44
2023-03-02T06:30:19.752Z,102279.47
2023-03-02T06:32:23.492Z,102286.50
2023-03-02T06:34:29.558Z,102279.53
2023-03-02T06:36:33.649Z,102288.34
2023-03-02T06:38:37.235Z,102276.06
2023-03-02T06:40:40.686Z,102269.03
2023-03-02T06:42:44.471Z,102270.78
2023-03-02T06:44:48.498Z,102271.69
2023-03-02T06:46:52.165Z,102271.69
2023-03-02T06:48:55.921Z,102279.56
2023-03-02T06:51:00.959Z,102288.31
2023-03-02T06:53:04.632Z,102283.06
2023-03-02T06:55:09.216Z,102282.16
2023-03-02T06:57:12.805Z,102283.06
2023-03-02T06:59:16.432Z,102288.28
2023-03-02T07:01:20.478Z,102286.50
2023-03-02T07:03:24.132Z,102288.25
2023-03-02T07:05:28.221Z,102283.84
2023-03-02T07:07:33.051Z,102285.53
2023-03-02T07:09:37.382Z,102288.22
2023-03-02T07:11:41.025Z,102289.94
2023-03-02T07:13:44.654Z,102293.44
2023-03-02T07:15:48.097Z,102288.09
2023-03-02T07:17:51.715Z,102299.50
2023-03-02T07:19:56.340Z,102295.09
2023-03-02T07:22:00.097Z,102305.56
2023-03-02T07:24:05.495Z,102307.28
2023-03-02T07:26:09.061Z,102305.50
2023-03-02T07:28:13.369Z,102309.88
2023-03-02T07:30:21.409Z,102314.28
2023-03-02T07:32:25.925Z,102319.56
2023-03-02T07:34:30.173Z,102321.44
2023-03-02T07:36:34.021Z,102322.34
2023-03-02T07:38:39.287Z,102318.06
2023-03-02T07:40:45.391Z,102333.06
2023-03-02T07:42:49.556Z,102339.38
2023-03-02T07:44:54.498Z,102327.25
2023-03-02T07:46:58.851Z,102334.38
2023-03-02T07:49:02.706Z,102337.03
2023-03-02T07:51:08.276Z,102323.06
2023-03-02T07:53:11.979Z,102327.44
2023-03-02T07:55:15.685Z,102324.81
2023-03-02T07:57:20.780Z,102332.66
2023-03-02T07:59:24.723Z,102329.16
2023-03-02T08:01:29.365Z,102337.88
2023-03-02T08:03:33.246Z,102334.41
2023-03-02T08:05:37.044Z,102338.84
2023-03-02T08:07:41.332Z,102337.94
2023-03-02T08:09:45.354Z,102344.91
2023-03-02T08:11:49.170Z,102337.88
2023-03-02T08:13:54.344Z,102342.28
2023-03-02T08:16:00.934Z,102342.34
2023-03-02T08:18:05.209Z,102350.22
2023-03-02T08:20:10.665Z,102344.94
2023-03-02T08:22:14.213Z,102357.22
2023-03-02T08:24:18.172Z,102358.03
2023-03-02T08:26:23.120Z,102357.97
2023-03-02T08:28:26.689Z,102360.53
2023-03-02T08:30:31.785Z,102351.66
2023-03-02T08:32:35.615Z,102362.19
2023-03-02T08:34:39.234Z,102367.44
2023-03-02T08:36:44.203Z,102363.09
2023-03-02T08:38:49.156Z,102377.13
2023-03-02T08:40:52.929Z,102372.75
2023-03-02T08:42:57.607Z,102371.91
2023-03-02T08:45:01.180Z,102371.97
2023-03-02T08:47:06.268Z,102376.41
2023-03-02T08:49:09.735Z,102383.41
2023-03-02T08:51:16.102Z,102381.66
2023-03-02T08:53:19.803Z,102388.59
2023-03-02T08:55:23.884Z,102383.31
2023-03-02T08:57:27.754Z,102384.97
2023-03-02T08:59:31.409Z,102384.03
2023-03-02T09:01:37.971Z,102383.06
2023-03-02T09:03:43.549Z,102381.97
2023-03-02T09:05:47.497Z,102380.94
2023-03-02T09:07:51.297Z,102380.75
2023-03-02T09:09:55.043Z,102386.06
2023-03-02T09:11:58.583Z,102383.41
2023-03-02T09:14:02.536Z,102385.88
2023-03-02T09:16:08.856Z,102388.56
2023-03-02T09:18:12.596Z,102384.03
2023-03-02T09:20:17.797Z,102390.19
2023-03-02T09:22:21.003Z,102390.16
2023-03-02T09:24:24.394Z,102394.41
2023-03-02T09:26:28.531Z,102397.88
2023-03-02T09:28:32.618Z,102399.72
2023-03-02T09:30:36.146Z,102394.50
2023-03-02T09:32:39.831Z,102398.81
2023-03-02T09:34:43.789Z,102399.56
2023-03-02T09:36:48.972Z,102400.41
2023-03-02T09:38:53.031Z,102404.78
2023-03-02T09:41:14.747Z,102405.63
2023-03-02T09:43:34.455Z,102402.13
2023-03-02T09:45:59.600Z,102395.09
2023-03-02T09:48:16.389Z,102402.91
2023-03-02T09:50:32.971Z,102394.84
2023-03-02T09:52:46.590Z,102393.03
2023-03-02T09:54:50.284Z,102400.88
2023-03-02T09:56:57.457Z,102393.03
2023-03-02T09:59:04.731Z,102397.38
2023-03-02T10:01:16.564Z,102392.09
2023-03-02T10:03:23.729Z,102394.59
2023-03-02T10:05:32.739Z,102396.22
2023-03-02T10:07:39.695Z,102397.00
2023-03-02T10:09:43.991Z,102398.81
2023-03-02T10:12:02.997Z,102394.41
2023-03-02T10:14:14.252Z,102396.19
2023-03-02T10:16:27.660Z,102391.81
2023-03-02T10:18:37.491Z,102395.34
2023-03-02T10:20:51.181Z,102397.13
2023-03-02T10:23:02.208Z,102398.81
2023-03-02T10:25:22.208Z,102401.38
2023-03-02T10:27:33.498Z,102404.97
2023-03-02T10:29:49.283Z,102406.06
2023-03-02T10:32:00.886Z,102408.84
2023-03-02T10:34:04.574Z,102411.72
2023-03-02T10:36:20.682Z,102418.16
2023-03-02T10:38:26.921Z,102407.81
2023-03-02T10:40:42.863Z,102410.31
2023-03-02T10:42:46.711Z,102413.66
2023-03-02T10:44:52.950Z,102411.78
2023-03-02T10:46:56.785Z,102406.34
2023-03-02T10:49:01.532Z,102406.13
2023-03-02T10:51:05.373Z,102412.69
2023-03-02T10:53:17.088Z,102413.16
2023-03-02T10:55:22.208Z,102412.25
2023-03-02T10:57:29.790Z,102410.59
2023-03-02T10:59:43.821Z,102406.22
2023-03-02T11:02:00.378Z,102406.25
2023-03-02T11:04:04.343Z,102413.22
2023-03-02T11:06:22.663Z,102410.28
2023-03-02T11:08:28.311Z,102410.00
2023-03-02T11:10:35.863Z,102417.06
2023-03-02T11:12:39.577Z,102414.31
2023-03-02T11:14:43.823Z,102411.94
2023-03-02T11:16:49.335Z,102407.00
2023-03-02T11:18:57.063Z,102406.19
2023-03-02T11:21:05.687Z,102410.63
2023-03-02T11:23:22.439Z,102405.91
2023-03-02T11:25:31.197Z,102407.59
2023-03-02T11:27:40.625Z,102395.94
2023-03-02T11:29:48.940Z,102404.03
2023-03-02T11:31:56.566Z,102403.53
2023-03-02T11:34:17.375Z,102405.84
2023-03-02T11:36:26.305Z,102411.53
2023-03-02T11:38:34.057Z,102409.19
2023-03-02T11:40:46.733Z,102409.41
2023-03-02T11:42:52.903Z,102411.44
2023-03-02T11:44:56.949Z,102409.03
2023-03-02T11:47:02.823Z,102414.16
2023-03-02T11:49:13.309Z,102408.72
2023-03-02T11:51:23.439Z,102408.47
2023-03-02T11:53:31.887Z,102409.31
2023-03-02T11:55:42.372Z,102398.56
2023-03-02T11:57:49.964Z,102406.41
2023-03-02T11:59:57.231Z,102402.63
2023-03-02T12:02:01.741Z,102397.34
2023-03-02T12:04:11.286Z,102407.88
2023-03-02T12:06:39.638Z,102405.56
2023-03-02T12:08:45.471Z,102405.78
2023-03-02T12:11:00.475Z,102409.44
2023-03-02T12:13:20.094Z,102407.75
2023-03-02T12:15:38.316Z,102398.41
2023-03-02T12:17:42.029Z,102407.16
2023-03-02T12:19:45.774Z,102406.31
2023-03-02T12:22:00.036Z,102390.47
2023-03-02T12:24:06.498Z,102399.06
2023-03-02T12:26:25.856Z,102395.47
2023-03-02T12:28:32.752Z,102397.25
2023-03-02T12:30:37.918Z,102396.22
2023-03-02T12:32:41.237Z,102391.97
2023-03-02T12:34:53.164Z,102397.13
2023-03-02T12:37:00.253Z,102396.97
2023-03-02T12:39:18.564Z,102395.19
2023-03-02T12:41:41.908Z,102397.94
2023-03-02T12:43:57.272Z,102401.84
2023-03-02T12:46:25.520Z,102395.88
2023-03-02T12:48:32.395Z,102392.41
2023-03-02T12:50:40.988Z,102390.47
2023-03-02T12:52:45.168Z,102400.00
2023-03-02T12:54:48.779Z,102395.69
2023-03-02T12:57:02.780Z,102398.53
2023-03-02T12:59:06.557Z,102394.22
2023-03-02T13:01:23.866Z,102402.81
2023-03-02T13:03:29.297Z,102396.56
2023-03-02T13:05:36.055Z,102393.81
2023-03-02T13:07:43.206Z,102391.31
2023-03-02T13:09:56.604Z,102393.00
2023-03-02T13:12:00.804Z,102394.47
2023-03-02T13:14:18.709Z,102398.69
2023-03-02T13:16:26.239Z,102397.78
2023-03-02T13:18:32.645Z,102390.09
2023-03-02T13:20:36.259Z,102392.97
2023-03-02T13:22:40.216Z,102391.31
2023-03-02T13:24:47.913Z,102390.41
2023-03-02T13:26:57.125Z,102389.34
2023-03-02T13:29:06.546Z,102393.97
2023-03-02T13:31:21.727Z,102379.31
2023-03-02T13:33:28.070Z,102382.97
2023-03-02T13:35:34.566Z,102383.00
2023-03-02T13:37:43.836Z,102386.53
2023-03-02T13:39:56.235Z,102377.56
2023-03-02T13:42:01.189Z,102373.03
2023-03-02T13:44:20.038Z,102374.75
2023-03-02T13:46:30.303Z,102366.94
2023-03-02T13:48:35.397Z,102365.22
2023-03-02T13:50:39.459Z,102364.25
2023-03-02T13:52:43.020Z,102366.81
2023-03-02T13:54:48.461Z,102364.72
2023-03-02T13:56:52.457Z,102361.94
2023-03-02T13:58:56.339Z,102358.38
2023-03-02T14:01:00.036Z,102362.50
2023-03-02T14:03:04.125Z,102361.53
2023-03-02T14:05:17.364Z,102354.78
2023-03-02T14:07:21.435Z,102364.59
2023-03-02T14:09:27.395Z,102363.81
2023-03-02T14:11:35.573Z,102365.88
2023-03-02T14:13:43.329Z,102374.97
2023-03-02T14:15:50.532Z,102363.72
2023-03-02T14:17:54.008Z,102366.47
2023-03-02T14:19:57.559Z,102378.78
2023-03-02T14:22:02.579Z,102363.91
2023-03-02T14:24:06.692Z,102369.38
2023-03-02T14:26:25.138Z,102372.00
2023-03-02T14:28:35.804Z,102376.47
2023-03-02T14:30:41.814Z,102370.47
2023-03-02T14:32:45.819Z,102372.25
2023-03-02T14:34:49.356Z,102377.53
2023-03-02T14:36:57.768Z,102378.44
2023-03-02T14:39:06.977Z,102368.66
2023-03-02T14:41:14.786Z,102378.09
2023-03-02T14:43:19.082Z,102370.81
2023-03-02T14:45:23.312Z,102365.50
2023-03-02T14:47:26.826Z,102363.78
2023-03-02T14:49:30.332Z,102370.72
2023-03-02T14:51:36.996Z,102363.50
2023-03-02T14:53:40.609Z,102365.41
2023-03-02T14:55:46.289Z,102356.78
2023-03-02T14:57:52.728Z,102354.94
2023-03-02T15:00:00.005Z,102358.41
2023-03-02T15:02:12.934Z,102350.44
2023-03-02T15:04:26.497Z,102349.50
2023-03-02T15:06:32.482Z,102345.13
2023-03-02T15:08:36.466Z,102350.50
2023-03-02T15:10:42.510Z,102348.75
2023-03-02T15:12:48.269Z,102352.44
2023-03-02T15:14:54.383Z,102349.13
2023-03-02T15:16:57.778Z,102348.47
2023-03-02T15:19:01.328Z,102345.19
2023-03-02T15:21:04.978Z,102355.75
2023-03-02T15:23:08.903Z,102347.28
2023-03-02T15:25:13.091Z,102350.19
2023-03-02T15:27:17.005Z,102349.44
2023-03-02T15:29:22.603Z,102346.88
2023-03-02T15:31:28.408Z,102347.78
2023-03-02T15:33:32.166Z,102350.44
2023-03-02T15:35:36.250Z,102340.00
2023-03-02T15:37:40.115Z,102344.44
2023-03-02T15:39:44.677Z,102342.69
2023-03-02T15:41:48.278Z,102342.72
2023-03-02T15:43:52.956Z,102340.09
2023-03-02T15:45:58.282Z,102339.13
2023-03-02T15:48:01.942Z,102342.56
2023-03-02T15:50:06.296Z,102340.69
2023-03-02T15:52:09.945Z,102335.34
2023-03-02T15:54:13.809Z,102330.88
2023-03-02T15:56:18.108Z,102334.34
2023-03-02T15:58:22.462Z,102337.00
2023-03-02T16:00:26.208Z,102330.88
2023-03-02T16:02:31.958Z,102334.41
2023-03-02T16:04:36.039Z,102337.03
2023-03-02T16:06:39.979Z,102338.78
2023-03-02T16:08:43.779Z,102339.50
2023-03-02T16:10:57.807Z,102343.97
2023-03-02T16:13:02.539Z,102339.63
2023-03-02T16:15:07.518Z,102344.00
2023-03-02T16:17:11.904Z,102344.03
2023-03-02T16:19:19.430Z,102343.22
2023-03-02T16:21:23.809Z,102348.44
2023-03-02T16:23:27.393Z,102351.06
2023-03-02T16:25:31.454Z,102345.00
2023-03-02T16:27:35.193Z,102346.69
2023-03-02T16:29:38.396Z,102347.56
2023-03-02T16:31:42.730Z,102358.09
2023-03-02T16:33:47.323Z,102364.16
2023-03-02T16:35:52.283Z,102357.97
2023-03-02T16:37:56.170Z,102361.38
2023-03-02T16:39:59.843Z,102357.03
2023-03-02T16:42:03.400Z,102353.59
2023-03-02T16:44:07.666Z,102361.53
2023-03-02T16:46:11.282Z,102356.28
2023-03-02T16:48:15.230Z,102359.72
2023-03-02T16:50:19.807Z,102363.19
2023-03-02T16:52:25.011Z,102356.13
2023-03-02T16:54:29.138Z,102363.16
2023-03-02T16:56:32.959Z,102362.22
2023-03-02T16:58:38.775Z,102360.53
2023-03-02T17:00:42.900Z,102362.38
2023-03-02T17:02:47.091Z,102358.00
2023-03-02T17:04:50.961Z,102363.38
2023-03-02T17:07:02.413Z,102359.00
2023-03-02T17:09:07.635Z,102364.25
2023-03-02T17:11:10.864Z,102365.09
2023-03-02T17:13:16.661Z,102364.28
2023-03-02T17:15:20.509Z,102367.72
2023-03-02T17:17:24.101Z,102375.69
2023-03-02T17:19:29.729Z,102381.84
2023-03-02T17:21:33.955Z,102382.72
2023-03-02T17:23:37.581Z,102388.88
2023-03-02T17:25:42.691Z,102390.66
2023-03-02T17:27:46.944Z,102389.81
2023-03-02T17:29:51.523Z,102391.63
2023-03-02T17:31:55.776Z,102394.25
2023-03-02T17:33:59.946Z,102396.91
2023-03-02T17:36:07.776Z,102397.75
2023-03-02T17:38:11.688Z,102395.97
2023-03-02T17:40:17.838Z,102403.00
2023-03-02T17:42:23.427Z,102403.00
2023-03-02T17:44:28.327Z,102409.09
2023-03-02T17:46:32.819Z,102410.78
2023-03-02T17:48:36.753Z,102406.41
2023-03-02T17:50:41.215Z,102411.66
2023-03-02T17:52:45.095Z,102412.66
2023-03-02T17:54:49.523Z,102422.34
2023-03-02T17:56:53.423Z,102424.13
2023-03-02T17:59:01.892Z,102424.06
2023-03-02T18:01:07.304Z,102422.31
2023-03-02T18:03:11.581Z,102425.88
2023-03-02T18:05:16.277Z,102425.94
2023-03-02T18:07:21.342Z,102425.13
2023-03-02T18:09:25.754Z,102425.13
2023-03-02T18:11:29.344Z,102431.31
2023-03-02T18:13:33.356Z,102433.06
2023-03-02T18:15:39.688Z,102432.19
2023-03-02T18:17:43.471Z,102431.31
2023-03-02T18:19:47.573Z,102431.34
2023-03-02T18:21:52.033Z,102434.81
2023-03-02T18:23:56.146Z,102435.72
2023-03-02T18:26:00.341Z,102434.00
2023-03-02T18:28:04.049Z,102438.34
2023-03-02T18:30:09.191Z,102434.91
2023-03-02T18:32:15.706Z,102436.63
2023-03-02T18:34:20.043Z,102440.16
2023-03-02T18:36:24.797Z,102440.19
2023-03-02T18:38:31.141Z,102440.25
2023-03-02T18:40:35.232Z,102436.72
2023-03-02T18:42:39.264Z,102445.50
2023-03-02T18:44:43.052Z,102442.06
2023-03-02T18:46:47.251Z,102447.31
2023-03-02T18:48:53.115Z,102446.41
2023-03-02T18:50:57.188Z,102443.78
2023-03-02T18:53:01.779Z,102443.78
2023-03-02T18:55:07.758Z,102442.06
2023-03-02T18:57:12.108Z,102447.31
2023-03-02T18:59:18.076Z,102444.69
2023-03-02T19:01:22.482Z,102449.03
2023-03-02T19:03:26.237Z,102456.09
2023-03-02T19:05:31.366Z,102453.47
2023-03-02T19:07:34.964Z,102458.72
2023-03-02T19:09:38.739Z,102460.50
2023-03-02T19:11:42.373Z,102459.63
2023-03-02T19:13:46.171Z,102467.50
2023-03-02T19:15:49.803Z,102456.16
2023-03-02T19:17:53.785Z,102464.94
2023-03-02T19:19:58.298Z,102460.56
2023-03-02T19:22:06.621Z,102466.72
2023-03-02T19:24:11.961Z,102465.84
2023-03-02T19:26:16.197Z,102471.16
2023-03-02T19:28:21.865Z,102473.78
2023-03-02T19:30:27.806Z,102479.03
2023-03-02T19:32:32.246Z,102471.09
2023-03-02T19:34:36.125Z,102473.72
2023-03-02T19:36:40.738Z,102478.09
2023-03-02T19:38:46.172Z,102477.19
2023-03-02T19:40:50.404Z,102479.81
2023-03-02T19:42:55.053Z,102478.91
2023-03-02T19:45:00.359Z,102478.06
2023-03-02T19:47:04.376Z,102477.16
2023-03-02T19:49:08.528Z,102474.50
2023-03-02T19:51:13.678Z,102476.28
2023-03-02T19:53:18.627Z,102467.44
2023-03-02T19:55:25.413Z,102478.00
2023-03-02T19:57:30.340Z,102479.75
2023-03-02T19:59:36.794Z,102477.06
2023-03-02T20:01:41.814Z,102484.09
2023-03-02T20:10:30.373Z,102486.69
2023-03-02T20:12:34.723Z,102486.69
2023-03-02T20:14:39.868Z,102488.47
2023-03-02T20:16:44.361Z,102484.97
2023-03-02T20:18:49.625Z,102496.38
2023-03-02T20:20:53.787Z,102495.44
2023-03-02T20:22:58.218Z,102496.28
2023-03-02T20:25:03.090Z,102493.63
2023-03-02T20:27:09.787Z,102506.75
2023-03-02T20:29:17.000Z,102498.84
2023-03-02T20:31:21.468Z,102497.16
2023-03-02T20:33:28.424Z,102498.84
2023-03-02T20:35:36.998Z,102509.41
2023-03-02T20:37:41.867Z,102505.91
2023-03-02T20:39:48.429Z,102506.75
2023-03-02T20:41:52.722Z,102505.00
2023-03-02T20:43:59.900Z,102511.13
2023-03-02T20:46:04.445Z,102512.94
2023-03-02T20:48:09.722Z,102512.97
2023-03-02T20:50:16.992Z,102506.88
2023-03-02T20:52:22.874Z,102506.88
2023-03-02T20:54:30.557Z,102508.66
2023-03-02T20:56:36.955Z,102507.78
2023-03-02T20:58:44.189Z,102513.09
2023-03-02T21:00:50.195Z,102514.81
2023-03-02T21:03:00.580Z,102511.34
2023-03-02T21:05:06.447Z,102526.25
2023-03-02T21:07:11.569Z,102521.81
2023-03-02T21:09:17.290Z,102523.53
2023-03-02T21:11:23.979Z,102528.00
2023-03-02T21:13:29.985Z,102525.41
2023-03-02T21:15:34.587Z,102528.06
2023-03-02T21:17:40.509Z,102533.38
2023-03-02T21:19:50.142Z,102533.38
2023-03-02T21:21:55.584Z,102537.72
2023-03-02T21:24:00.417Z,102528.97
2023-03-02T21:26:05.408Z,102535.94
2023-03-02T21:28:11.295Z,102538.53
2023-03-02T21:30:20.981Z,102535.00
2023-03-02T21:32:29.689Z,102534.16
2023-03-02T21:34:38.315Z,102539.41
2023-03-02T21:36:43.825Z,102536.84
2023-03-02T21:38:47.776Z,102537.75
2023-03-02T21:40:52.264Z,102538.69
2023-03-02T21:42:57.310Z,102533.41
2023-03-02T21:45:03.891Z,102535.09
2023-03-02T21:47:09.529Z,102542.09
2023-03-02T21:49:17.057Z,102542.09
2023-03-02T21:51:23.110Z,102540.34
2023-03-02T21:53:26.624Z,102544.69
2023-03-02T21:55:32.291Z,102542.06
2023-03-02T21:57:36.787Z,102545.59
2023-03-02T21:59:41.199Z,102549.94
2023-03-02T22:02:04.438Z,102542.06
2023-03-02T22:04:09.114Z,102549.13
2023-03-02T22:06:19.434Z,102548.22
2023-03-02T22:08:25.188Z,102545.59
2023-03-02T22:10:35.439Z,102537.72
2023-03-02T22:12:39.481Z,102549.13
2023-03-02T22:14:43.765Z,102544.75
2023-03-02T22:16:48.573Z,102549.13
2023-03-02T22:18:56.789Z,102544.75
2023-03-02T22:21:00.945Z,102543.91
2023-03-02T22:23:13.204Z,102547.41
2023-03-02T22:25:20.505Z,102543.03
2023-03-02T22:27:26.788Z,102538.66
2023-03-02T22:29:34.544Z,102537.72
2023-03-02T22:31:47.314Z,102538.63
2023-03-02T22:33:51.862Z,102537.72
2023-03-02T22:36:02.534Z,102531.59
2023-03-02T22:38:13.339Z,102541.22
2023-03-02T22:40:29.930Z,102537.72
2023-03-02T22:42:33.696Z,102542.97
2023-03-02T22:44:39.483Z,102542.09
2023-03-02T22:46:44.744Z,102548.22
2023-03-02T22:48:49.417Z,102543.00
2023-03-02T22:50:54.434Z,102547.34
2023-03-02T22:53:02.495Z,102549.97
2023-03-02T22:55:36.060Z,102550.84
2023-03-02T22:57:40.990Z,102550.84
2023-03-02T22:59:45.897Z,102553.53
2023-03-02T23:01:54.420Z,102547.38
2023-03-02T23:04:10.689Z,102554.38
2023-03-02T23:06:25.532Z,102550.03
2023-03-02T23:08:31.186Z,102548.28
2023-03-02T23:10:36.652Z,102550.88
2023-03-02T23:12:49.012Z,102549.16
2023-03-02T23:14:56.910Z,102555.25
2023-03-02T23:17:03.557Z,102550.88
2023-03-02T23:19:08.082Z,102557.91
2023-03-02T23:21:25.517Z,102548.25
2023-03-02T23:23:39.856Z,102557.03
2023-03-02T23:25:45.693Z,102543.81
2023-03-02T23:27:49.925Z,102551.72
2023-03-02T23:29:56.786Z,102552.56
2023-03-02T23:32:00.902Z,102552.53
2023-03-02T23:34:07.160Z,102554.25
2023-03-02T23:36:13.868Z,102560.41
2023-03-02T23:38:19.529Z,102559.53
2023-03-02T23:40:25.558Z,102556.00
2023-03-02T23:42:32.514Z,102556.03
2023-03-02T23:44:37.094Z,102556.00
2023-03-02T23:46:40.929Z,102559.50
2023-03-02T23:48:45.425Z,102552.47
2023-03-02T23:50:51.062Z,102555.13
2023-03-02T23:52:54.910Z,102563.00
2023-03-02T23:54:59.480Z,102558.59
2023-03-02T23:57:04.051Z,102563.00
2023-03-02T23:59:12.811Z,102556.88
